sensor_id;sensor_type;location;lat;lon;timestamp;P1;durP1;ratioP1;P2;durP2;ratioP2
73940;SDS011;62294;48.554;10.202;2024-03-23T00:55:33;5.43;;;3.05;;
73940;SDS011;62294;48.554;10.202;2024-03-23T00:57:58;6.43;;;2.92;;
73940;SDS011;62294;48.554;10.202;2024-03-23T01:00:24;5.68;;;3.38;;
73940;SDS011;62294;48.554;10.202;2024-03-23T01:02:50;6.70;;;4.30;;
73940;SDS011;62294;48.554;10.202;2024-03-23T01:05:16;7.85;;;4.45;;
73940;SDS011;62294;48.554;10.202;2024-03-23T01:07:41;10.45;;;3.95;;
73940;SDS011;62294;48.554;10.202;2024-03-23T01:10:07;7.30;;;3.58;;
73940;SDS011;62294;48.554;10.202;2024-03-23T01:12:33;6.63;;;4.00;;
73940;SDS011;62294;48.554;10.202;2024-03-23T01:14:58;6.22;;;3.80;;
73940;SDS011;62294;48.554;10.202;2024-03-23T01:17:24;5.65;;;3.38;;
73940;SDS011;62294;48.554;10.202;2024-03-23T01:19:50;9.32;;;3.75;;
73940;SDS011;62294;48.554;10.202;2024-03-23T01:22:16;6.53;;;3.50;;
73940;SDS011;62294;48.554;10.202;2024-03-23T01:24:41;7.20;;;3.40;;
73940;SDS011;62294;48.554;10.202;2024-03-23T01:27:08;8.80;;;4.40;;
73940;SDS011;62294;48.554;10.202;2024-03-23T01:29:33;5.88;;;3.47;;
73940;SDS011;62294;48.554;10.202;2024-03-23T01:31:59;6.70;;;3.22;;
73940;SDS011;62294;48.554;10.202;2024-03-23T01:34:25;6.28;;;3.60;;
73940;SDS011;62294;48.554;10.202;2024-03-23T01:36:51;5.10;;;3.35;;
73940;SDS011;62294;48.554;10.202;2024-03-23T01:39:16;5.95;;;3.13;;
73940;SDS011;62294;48.554;10.202;2024-03-23T01:41:42;5.00;;;2.80;;
73940;SDS011;62294;48.554;10.202;2024-03-23T01:44:09;5.85;;;3.40;;
73940;SDS011;62294;48.554;10.202;2024-03-23T01:46:35;5.78;;;3.58;;
73940;SDS011;62294;48.554;10.202;2024-03-23T01:49:02;7.95;;;3.88;;
73940;SDS011;62294;48.554;10.202;2024-03-23T01:51:31;7.65;;;3.63;;
73940;SDS011;62294;48.554;10.202;2024-03-23T01:53:57;6.40;;;3.47;;
73940;SDS011;62294;48.554;10.202;2024-03-23T01:56:28;7.95;;;4.13;;
73940;SDS011;62294;48.554;10.202;2024-03-23T01:58:55;6.25;;;3.40;;
73940;SDS011;62294;48.554;10.202;2024-03-23T02:01:21;6.43;;;4.25;;
73940;SDS011;62294;48.554;10.202;2024-03-23T02:03:46;10.60;;;4.15;;
73940;SDS011;62294;48.554;10.202;2024-03-23T02:06:12;7.57;;;4.38;;
73940;SDS011;62294;48.554;10.202;2024-03-23T02:08:38;8.43;;;4.18;;
73940;SDS011;62294;48.554;10.202;2024-03-23T02:11:05;7.43;;;4.22;;
73940;SDS011;62294;48.554;10.202;2024-03-23T02:13:30;7.03;;;4.22;;
73940;SDS011;62294;48.554;10.202;2024-03-23T02:15:57;6.38;;;3.83;;
73940;SDS011;62294;48.554;10.202;2024-03-23T02:18:23;7.38;;;4.60;;
73940;SDS011;62294;48.554;10.202;2024-03-23T02:20:49;6.50;;;4.30;;
73940;SDS011;62294;48.554;10.202;2024-03-23T02:23:15;7.65;;;4.22;;
73940;SDS011;62294;48.554;10.202;2024-03-23T02:25:41;6.57;;;4.13;;
73940;SDS011;62294;48.554;10.202;2024-03-23T02:28:07;8.50;;;4.18;;
73940;SDS011;62294;48.554;10.202;2024-03-23T02:30:34;6.65;;;4.45;;
73940;SDS011;62294;48.554;10.202;2024-03-23T02:32:59;6.00;;;3.63;;
73940;SDS011;62294;48.554;10.202;2024-03-23T02:35:25;5.35;;;2.75;;
73940;SDS011;62294;48.554;10.202;2024-03-23T02:37:51;5.65;;;2.55;;
73940;SDS011;62294;48.554;10.202;2024-03-23T02:40:17;6.82;;;3.10;;
73940;SDS011;62294;48.554;10.202;2024-03-23T02:42:43;6.10;;;3.30;;
73940;SDS011;62294;48.554;10.202;2024-03-23T02:45:09;4.47;;;2.88;;
73940;SDS011;62294;48.554;10.202;2024-03-23T02:47:35;6.32;;;3.58;;
73940;SDS011;62294;48.554;10.202;2024-03-23T02:50:00;5.65;;;3.38;;
73940;SDS011;62294;48.554;10.202;2024-03-23T02:52:26;4.35;;;2.95;;
73940;SDS011;62294;48.554;10.202;2024-03-23T02:54:52;5.15;;;2.97;;
73940;SDS011;62294;48.554;10.202;2024-03-23T02:57:18;4.47;;;2.60;;
73940;SDS011;62294;48.554;10.202;2024-03-23T02:59:44;3.10;;;2.33;;
73940;SDS011;62294;48.554;10.202;2024-03-23T03:02:09;4.72;;;2.80;;
73940;SDS011;62294;48.554;10.202;2024-03-23T03:04:35;5.55;;;3.00;;
73940;SDS011;62294;48.554;10.202;2024-03-23T03:07:00;5.40;;;2.72;;
73940;SDS011;62294;48.554;10.202;2024-03-23T03:09:26;4.90;;;2.85;;
73940;SDS011;62294;48.554;10.202;2024-03-23T03:11:52;4.70;;;3.10;;
73940;SDS011;62294;48.554;10.202;2024-03-23T03:14:17;6.20;;;3.15;;
73940;SDS011;62294;48.554;10.202;2024-03-23T03:16:43;3.40;;;2.17;;
73940;SDS011;62294;48.554;10.202;2024-03-23T03:19:08;2.28;;;1.90;;
73940;SDS011;62294;48.554;10.202;2024-03-23T03:21:36;3.47;;;2.85;;
73940;SDS011;62294;48.554;10.202;2024-03-23T03:24:03;4.80;;;3.03;;
73940;SDS011;62294;48.554;10.202;2024-03-23T03:26:29;3.05;;;2.35;;
73940;SDS011;62294;48.554;10.202;2024-03-23T03:28:54;2.60;;;2.08;;
73940;SDS011;62294;48.554;10.202;2024-03-23T03:31:20;3.80;;;2.75;;
73940;SDS011;62294;48.554;10.202;2024-03-23T03:33:46;4.50;;;2.85;;
73940;SDS011;62294;48.554;10.202;2024-03-23T03:36:12;5.85;;;3.08;;
73940;SDS011;62294;48.554;10.202;2024-03-23T03:38:37;10.45;;;3.45;;
73940;SDS011;62294;48.554;10.202;2024-03-23T03:41:06;6.20;;;3.10;;
73940;SDS011;62294;48.554;10.202;2024-03-23T03:43:32;5.22;;;2.95;;
73940;SDS011;62294;48.554;10.202;2024-03-23T03:45:59;6.28;;;3.90;;
73940;SDS011;62294;48.554;10.202;2024-03-23T03:48:25;5.00;;;2.97;;
73940;SDS011;62294;48.554;10.202;2024-03-23T03:50:52;5.75;;;3.25;;
73940;SDS011;62294;48.554;10.202;2024-03-23T03:53:18;6.93;;;3.47;;
73940;SDS011;62294;48.554;10.202;2024-03-23T03:55:44;6.95;;;3.40;;
73940;SDS011;62294;48.554;10.202;2024-03-23T03:58:09;5.85;;;3.28;;
73940;SDS011;62294;48.554;10.202;2024-03-23T04:00:35;6.18;;;3.17;;
73940;SDS011;62294;48.554;10.202;2024-03-23T04:03:01;5.72;;;3.40;;
73940;SDS011;62294;48.554;10.202;2024-03-23T04:05:26;5.43;;;3.30;;
73940;SDS011;62294;48.554;10.202;2024-03-23T04:07:53;8.13;;;3.85;;
73940;SDS011;62294;48.554;10.202;2024-03-23T04:10:19;7.07;;;3.47;;
73940;SDS011;62294;48.554;10.202;2024-03-23T04:12:45;7.63;;;4.18;;
73940;SDS011;62294;48.554;10.202;2024-03-23T04:15:11;8.45;;;4.20;;
73940;SDS011;62294;48.554;10.202;2024-03-23T04:17:37;5.20;;;3.28;;
73940;SDS011;62294;48.554;10.202;2024-03-23T04:20:03;6.70;;;3.97;;
73940;SDS011;62294;48.554;10.202;2024-03-23T04:22:31;5.68;;;3.47;;
73940;SDS011;62294;48.554;10.202;2024-03-23T04:24:56;5.50;;;3.28;;
73940;SDS011;62294;48.554;10.202;2024-03-23T04:27:22;7.22;;;3.60;;
73940;SDS011;62294;48.554;10.202;2024-03-23T04:29:49;7.25;;;4.00;;
73940;SDS011;62294;48.554;10.202;2024-03-23T04:32:15;8.68;;;3.92;;
73940;SDS011;62294;48.554;10.202;2024-03-23T04:34:42;8.45;;;3.90;;
73940;SDS011;62294;48.554;10.202;2024-03-23T04:37:08;7.88;;;4.25;;
73940;SDS011;62294;48.554;10.202;2024-03-23T04:39:35;7.90;;;3.08;;
73940;SDS011;62294;48.554;10.202;2024-03-23T04:42:02;6.25;;;3.35;;
73940;SDS011;62294;48.554;10.202;2024-03-23T04:44:28;7.35;;;2.67;;
73940;SDS011;62294;48.554;10.202;2024-03-23T04:46:54;4.63;;;2.78;;
73940;SDS011;62294;48.554;10.202;2024-03-23T04:49:20;3.47;;;2.25;;
73940;SDS011;62294;48.554;10.202;2024-03-23T04:51:45;7.43;;;3.15;;
73940;SDS011;62294;48.554;10.202;2024-03-23T04:54:11;6.63;;;3.25;;
73940;SDS011;62294;48.554;10.202;2024-03-23T04:56:37;7.97;;;3.58;;
73940;SDS011;62294;48.554;10.202;2024-03-23T04:59:03;5.53;;;2.90;;
73940;SDS011;62294;48.554;10.202;2024-03-23T05:01:30;6.40;;;2.97;;
73940;SDS011;62294;48.554;10.202;2024-03-23T05:03:59;4.43;;;2.55;;
73940;SDS011;62294;48.554;10.202;2024-03-23T05:06:25;5.00;;;2.92;;
73940;SDS011;62294;48.554;10.202;2024-03-23T05:08:51;4.72;;;2.78;;
73940;SDS011;62294;48.554;10.202;2024-03-23T05:11:17;3.63;;;2.80;;
73940;SDS011;62294;48.554;10.202;2024-03-23T05:13:43;3.78;;;2.53;;
73940;SDS011;62294;48.554;10.202;2024-03-23T05:16:09;6.60;;;2.28;;
73940;SDS011;62294;48.554;10.202;2024-03-23T05:18:35;5.55;;;2.53;;
73940;SDS011;62294;48.554;10.202;2024-03-23T05:21:01;2.28;;;1.60;;
73940;SDS011;62294;48.554;10.202;2024-03-23T05:23:27;4.05;;;2.28;;
73940;SDS011;62294;48.554;10.202;2024-03-23T05:25:54;2.80;;;1.88;;
73940;SDS011;62294;48.554;10.202;2024-03-23T05:28:20;4.38;;;1.75;;
73940;SDS011;62294;48.554;10.202;2024-03-23T05:30:50;3.58;;;2.42;;
73940;SDS011;62294;48.554;10.202;2024-03-23T05:33:18;5.28;;;2.40;;
73940;SDS011;62294;48.554;10.202;2024-03-23T05:35:44;4.55;;;2.42;;
73940;SDS011;62294;48.554;10.202;2024-03-23T05:38:10;3.33;;;2.00;;
73940;SDS011;62294;48.554;10.202;2024-03-23T05:40:36;3.50;;;2.17;;
73940;SDS011;62294;48.554;10.202;2024-03-23T05:43:06;2.80;;;2.05;;
73940;SDS011;62294;48.554;10.202;2024-03-23T05:45:32;3.95;;;2.72;;
73940;SDS011;62294;48.554;10.202;2024-03-23T05:47:58;3.72;;;2.22;;
73940;SDS011;62294;48.554;10.202;2024-03-23T05:50:24;3.38;;;2.63;;
73940;SDS011;62294;48.554;10.202;2024-03-23T05:52:49;3.22;;;2.15;;
73940;SDS011;62294;48.554;10.202;2024-03-23T05:55:15;4.35;;;2.25;;
73940;SDS011;62294;48.554;10.202;2024-03-23T05:57:41;3.95;;;1.80;;
73940;SDS011;62294;48.554;10.202;2024-03-23T06:00:07;3.92;;;2.67;;
73940;SDS011;62294;48.554;10.202;2024-03-23T06:02:41;3.05;;;1.95;;
73940;SDS011;62294;48.554;10.202;2024-03-23T06:05:12;1.85;;;1.30;;
73940;SDS011;62294;48.554;10.202;2024-03-23T06:07:38;4.32;;;2.35;;
73940;SDS011;62294;48.554;10.202;2024-03-23T06:10:04;3.28;;;2.40;;
73940;SDS011;62294;48.554;10.202;2024-03-23T06:12:31;4.45;;;1.83;;
73940;SDS011;62294;48.554;10.202;2024-03-23T06:14:57;6.13;;;3.55;;
73940;SDS011;62294;48.554;10.202;2024-03-23T06:17:23;7.65;;;3.60;;
73940;SDS011;62294;48.554;10.202;2024-03-23T06:19:49;5.13;;;3.10;;
73940;SDS011;62294;48.554;10.202;2024-03-23T06:22:15;8.30;;;4.03;;
73940;SDS011;62294;48.554;10.202;2024-03-23T06:24:40;6.13;;;4.35;;
73940;SDS011;62294;48.554;10.202;2024-03-23T06:27:07;6.85;;;3.47;;
73940;SDS011;62294;48.554;10.202;2024-03-23T06:29:33;6.03;;;3.42;;
73940;SDS011;62294;48.554;10.202;2024-03-23T06:31:58;9.05;;;4.88;;
73940;SDS011;62294;48.554;10.202;2024-03-23T06:34:24;7.47;;;3.95;;
73940;SDS011;62294;48.554;10.202;2024-03-23T06:36:50;8.05;;;4.10;;
73940;SDS011;62294;48.554;10.202;2024-03-23T06:39:16;5.88;;;3.30;;
73940;SDS011;62294;48.554;10.202;2024-03-23T06:41:51;5.55;;;2.92;;
73940;SDS011;62294;48.554;10.202;2024-03-23T06:44:18;6.00;;;2.40;;
73940;SDS011;62294;48.554;10.202;2024-03-23T06:46:44;4.80;;;2.30;;
73940;SDS011;62294;48.554;10.202;2024-03-23T06:49:10;5.75;;;3.28;;
73940;SDS011;62294;48.554;10.202;2024-03-23T06:51:36;4.47;;;2.80;;
73940;SDS011;62294;48.554;10.202;2024-03-23T06:54:03;5.32;;;2.92;;
73940;SDS011;62294;48.554;10.202;2024-03-23T06:56:29;4.22;;;2.70;;
73940;SDS011;62294;48.554;10.202;2024-03-23T06:58:56;4.22;;;2.53;;
73940;SDS011;62294;48.554;10.202;2024-03-23T07:01:22;4.25;;;2.50;;
73940;SDS011;62294;48.554;10.202;2024-03-23T07:03:47;3.42;;;2.17;;
73940;SDS011;62294;48.554;10.202;2024-03-23T07:06:13;4.35;;;2.53;;
73940;SDS011;62294;48.554;10.202;2024-03-23T07:08:39;4.50;;;2.67;;
73940;SDS011;62294;48.554;10.202;2024-03-23T07:11:04;5.57;;;2.45;;
73940;SDS011;62294;48.554;10.202;2024-03-23T07:13:30;4.47;;;2.83;;
73940;SDS011;62294;48.554;10.202;2024-03-23T07:15:56;4.40;;;2.33;;
73940;SDS011;62294;48.554;10.202;2024-03-23T07:18:23;7.68;;;3.15;;
73940;SDS011;62294;48.554;10.202;2024-03-23T07:20:52;4.20;;;2.47;;
73940;SDS011;62294;48.554;10.202;2024-03-23T07:23:21;5.97;;;3.15;;
73940;SDS011;62294;48.554;10.202;2024-03-23T07:28:23;3.97;;;2.13;;
73940;SDS011;62294;48.554;10.202;2024-03-23T07:31:00;3.33;;;1.95;;
73940;SDS011;62294;48.554;10.202;2024-03-23T07:33:29;6.15;;;2.92;;
73940;SDS011;62294;48.554;10.202;2024-03-23T07:35:55;6.28;;;2.10;;
73940;SDS011;62294;48.554;10.202;2024-03-23T07:38:20;3.65;;;1.85;;
73940;SDS011;62294;48.554;10.202;2024-03-23T07:40:46;3.40;;;2.00;;
73940;SDS011;62294;48.554;10.202;2024-03-23T07:43:12;3.05;;;1.95;;
73940;SDS011;62294;48.554;10.202;2024-03-23T07:45:37;0.75;;;0.75;;
73940;SDS011;62294;48.554;10.202;2024-03-23T07:48:03;2.92;;;1.50;;
73940;SDS011;62294;48.554;10.202;2024-03-23T07:50:29;1.42;;;0.98;;
73940;SDS011;62294;48.554;10.202;2024-03-23T07:52:55;1.38;;;0.88;;
73940;SDS011;62294;48.554;10.202;2024-03-23T07:55:21;1.58;;;0.90;;
73940;SDS011;62294;48.554;10.202;2024-03-23T07:57:47;1.48;;;0.80;;
73940;SDS011;62294;48.554;10.202;2024-03-23T08:00:13;1.27;;;0.63;;
73940;SDS011;62294;48.554;10.202;2024-03-23T08:02:39;0.80;;;0.60;;
73940;SDS011;62294;48.554;10.202;2024-03-23T08:05:04;0.57;;;0.57;;
73940;SDS011;62294;48.554;10.202;2024-03-23T08:07:31;1.55;;;1.00;;
73940;SDS011;62294;48.554;10.202;2024-03-23T08:09:56;1.35;;;0.70;;
73940;SDS011;62294;48.554;10.202;2024-03-23T08:12:24;1.58;;;1.05;;
73940;SDS011;62294;48.554;10.202;2024-03-23T08:14:49;1.27;;;0.80;;
73940;SDS011;62294;48.554;10.202;2024-03-23T08:17:15;1.15;;;0.93;;
73940;SDS011;62294;48.554;10.202;2024-03-23T08:19:41;0.70;;;0.70;;
73940;SDS011;62294;48.554;10.202;2024-03-23T08:22:06;2.05;;;0.70;;
73940;SDS011;62294;48.554;10.202;2024-03-23T08:24:32;3.38;;;1.40;;
73940;SDS011;62294;48.554;10.202;2024-03-23T08:26:59;0.47;;;0.47;;
73940;SDS011;62294;48.554;10.202;2024-03-23T08:29:25;1.58;;;1.38;;
73940;SDS011;62294;48.554;10.202;2024-03-23T08:31:51;1.55;;;1.45;;
73940;SDS011;62294;48.554;10.202;2024-03-23T08:34:17;0.60;;;0.60;;
73940;SDS011;62294;48.554;10.202;2024-03-23T08:36:42;3.25;;;1.50;;
73940;SDS011;62294;48.554;10.202;2024-03-23T08:39:08;15.40;;;7.35;;
73940;SDS011;62294;48.554;10.202;2024-03-23T08:41:34;24.13;;;10.32;;
73940;SDS011;62294;48.554;10.202;2024-03-23T08:44:00;15.05;;;6.65;;
73940;SDS011;62294;48.554;10.202;2024-03-23T08:46:25;16.73;;;8.52;;
73940;SDS011;62294;48.554;10.202;2024-03-23T08:48:51;2.22;;;1.75;;
73940;SDS011;62294;48.554;10.202;2024-03-23T08:51:18;3.60;;;1.80;;
73940;SDS011;62294;48.554;10.202;2024-03-23T08:53:44;2.53;;;1.52;;
73940;SDS011;62294;48.554;10.202;2024-03-23T08:56:10;1.58;;;1.00;;
73940;SDS011;62294;48.554;10.202;2024-03-23T08:58:37;1.48;;;0.95;;
73940;SDS011;62294;48.554;10.202;2024-03-23T09:01:10;1.27;;;0.95;;
73940;SDS011;62294;48.554;10.202;2024-03-23T09:03:38;2.50;;;0.63;;
73940;SDS011;62294;48.554;10.202;2024-03-23T09:06:10;1.73;;;1.63;;
73940;SDS011;62294;48.554;10.202;2024-03-23T09:08:38;0.40;;;0.40;;
73940;SDS011;62294;48.554;10.202;2024-03-23T09:11:04;1.20;;;0.90;;
73940;SDS011;62294;48.554;10.202;2024-03-23T09:13:34;1.30;;;0.57;;
73940;SDS011;62294;48.554;10.202;2024-03-23T09:16:01;0.77;;;0.52;;
73940;SDS011;62294;48.554;10.202;2024-03-23T09:18:27;0.63;;;0.60;;
73940;SDS011;62294;48.554;10.202;2024-03-23T09:20:53;1.52;;;1.05;;
73940;SDS011;62294;48.554;10.202;2024-03-23T09:23:22;1.40;;;0.98;;
73940;SDS011;62294;48.554;10.202;2024-03-23T09:25:48;1.05;;;0.60;;
73940;SDS011;62294;48.554;10.202;2024-03-23T09:28:13;5.35;;;2.50;;
73940;SDS011;62294;48.554;10.202;2024-03-23T09:30:39;3.53;;;1.92;;
73940;SDS011;62294;48.554;10.202;2024-03-23T09:33:11;0.98;;;0.88;;
73940;SDS011;62294;48.554;10.202;2024-03-23T09:35:38;3.67;;;2.08;;
73940;SDS011;62294;48.554;10.202;2024-03-23T09:38:04;1.25;;;1.00;;
73940;SDS011;62294;48.554;10.202;2024-03-23T09:40:31;2.90;;;1.25;;
73940;SDS011;62294;48.554;10.202;2024-03-23T09:42:56;1.58;;;1.23;;
73940;SDS011;62294;48.554;10.202;2024-03-23T09:45:26;1.08;;;0.85;;
73940;SDS011;62294;48.554;10.202;2024-03-23T09:47:57;1.30;;;1.20;;
73940;SDS011;62294;48.554;10.202;2024-03-23T09:50:22;1.05;;;0.95;;
73940;SDS011;62294;48.554;10.202;2024-03-23T09:52:49;1.33;;;0.93;;
73940;SDS011;62294;48.554;10.202;2024-03-23T09:55:14;1.98;;;0.82;;
73940;SDS011;62294;48.554;10.202;2024-03-23T09:57:40;3.88;;;1.20;;
73940;SDS011;62294;48.554;10.202;2024-03-23T10:00:06;1.17;;;0.70;;
73940;SDS011;62294;48.554;10.202;2024-03-23T10:02:36;1.35;;;1.17;;
73940;SDS011;62294;48.554;10.202;2024-03-23T10:05:02;1.92;;;1.27;;
73940;SDS011;62294;48.554;10.202;2024-03-23T10:07:28;3.03;;;1.50;;
73940;SDS011;62294;48.554;10.202;2024-03-23T10:09:54;2.13;;;1.23;;
73940;SDS011;62294;48.554;10.202;2024-03-23T10:12:20;3.08;;;1.25;;
73940;SDS011;62294;48.554;10.202;2024-03-23T10:14:46;4.45;;;1.30;;
73940;SDS011;62294;48.554;10.202;2024-03-23T10:19:47;3.13;;;1.40;;
73940;SDS011;62294;48.554;10.202;2024-03-23T10:22:26;5.00;;;1.65;;
73940;SDS011;62294;48.554;10.202;2024-03-23T10:24:51;2.08;;;1.33;;
73940;SDS011;62294;48.554;10.202;2024-03-23T10:27:18;2.25;;;1.75;;
73940;SDS011;62294;48.554;10.202;2024-03-23T10:29:44;2.70;;;1.52;;
73940;SDS011;62294;48.554;10.202;2024-03-23T10:32:14;4.07;;;1.92;;
73940;SDS011;62294;48.554;10.202;2024-03-23T10:34:41;5.88;;;1.90;;
73940;SDS011;62294;48.554;10.202;2024-03-23T10:37:06;5.97;;;1.80;;
73940;SDS011;62294;48.554;10.202;2024-03-23T10:39:36;4.88;;;2.30;;
73940;SDS011;62294;48.554;10.202;2024-03-23T10:42:07;2.00;;;1.50;;
73940;SDS011;62294;48.554;10.202;2024-03-23T10:44:35;3.75;;;1.85;;
73940;SDS011;62294;48.554;10.202;2024-03-23T10:47:02;3.42;;;2.05;;
73940;SDS011;62294;48.554;10.202;2024-03-23T10:49:29;7.00;;;1.92;;
73940;SDS011;62294;48.554;10.202;2024-03-23T10:52:01;5.28;;;2.42;;
73940;SDS011;62294;48.554;10.202;2024-03-23T10:54:31;5.75;;;2.03;;
73940;SDS011;62294;48.554;10.202;2024-03-23T10:57:05;5.07;;;2.22;;
73940;SDS011;62294;48.554;10.202;2024-03-23T10:59:39;5.05;;;2.08;;
73940;SDS011;62294;48.554;10.202;2024-03-23T11:02:06;5.82;;;2.17;;
73940;SDS011;62294;48.554;10.202;2024-03-23T11:04:34;3.63;;;2.17;;
73940;SDS011;62294;48.554;10.202;2024-03-23T11:07:46;8.02;;;2.70;;
73940;SDS011;62294;48.554;10.202;2024-03-23T11:09:49;5.22;;;2.33;;
73940;SDS011;62294;48.554;10.202;2024-03-23T11:14:58;6.25;;;2.15;;
73940;SDS011;62294;48.554;10.202;2024-03-23T11:17:25;5.72;;;2.55;;
73940;SDS011;62294;48.554;10.202;2024-03-23T11:20:04;3.60;;;2.00;;
73940;SDS011;62294;48.554;10.202;2024-03-23T11:25:22;7.80;;;2.70;;
73940;SDS011;62294;48.554;10.202;2024-03-23T11:27:50;4.65;;;2.38;;
73940;SDS011;62294;48.554;10.202;2024-03-23T11:30:18;4.95;;;2.25;;
73940;SDS011;62294;48.554;10.202;2024-03-23T11:32:46;9.80;;;2.80;;
73940;SDS011;62294;48.554;10.202;2024-03-23T11:35:25;5.95;;;1.92;;
73940;SDS011;62294;48.554;10.202;2024-03-23T11:38:05;5.70;;;2.85;;
73940;SDS011;62294;48.554;10.202;2024-03-23T11:40:31;3.72;;;1.90;;
73940;SDS011;62294;48.554;10.202;2024-03-23T11:42:58;7.65;;;2.25;;
73940;SDS011;62294;48.554;10.202;2024-03-23T11:45:25;7.22;;;2.33;;
73940;SDS011;62294;48.554;10.202;2024-03-23T11:50:38;6.00;;;2.25;;
73940;SDS011;62294;48.554;10.202;2024-03-23T11:53:08;2.38;;;1.73;;
73940;SDS011;62294;48.554;10.202;2024-03-23T11:58:10;4.40;;;2.22;;
73940;SDS011;62294;48.554;10.202;2024-03-23T12:00:36;2.85;;;1.45;;
73940;SDS011;62294;48.554;10.202;2024-03-23T12:03:02;3.85;;;1.98;;
73940;SDS011;62294;48.554;10.202;2024-03-23T12:05:29;5.45;;;2.25;;
73940;SDS011;62294;48.554;10.202;2024-03-23T12:07:55;2.38;;;1.73;;
73940;SDS011;62294;48.554;10.202;2024-03-23T12:10:40;4.57;;;1.85;;
73940;SDS011;62294;48.554;10.202;2024-03-23T12:13:06;6.47;;;1.85;;
73940;SDS011;62294;48.554;10.202;2024-03-23T12:15:31;5.55;;;1.95;;
73940;SDS011;62294;48.554;10.202;2024-03-23T12:18:07;3.67;;;2.17;;
73940;SDS011;62294;48.554;10.202;2024-03-23T12:20:33;6.90;;;1.88;;
73940;SDS011;62294;48.554;10.202;2024-03-23T12:23:09;5.50;;;1.95;;
73940;SDS011;62294;48.554;10.202;2024-03-23T12:25:37;4.30;;;1.60;;
73940;SDS011;62294;48.554;10.202;2024-03-23T12:28:06;2.75;;;1.35;;
73940;SDS011;62294;48.554;10.202;2024-03-23T12:30:36;1.77;;;1.10;;
73940;SDS011;62294;48.554;10.202;2024-03-23T12:33:04;4.53;;;1.25;;
73940;SDS011;62294;48.554;10.202;2024-03-23T12:35:30;2.65;;;0.98;;
73940;SDS011;62294;48.554;10.202;2024-03-23T12:37:56;0.90;;;0.80;;
73940;SDS011;62294;48.554;10.202;2024-03-23T12:40:22;2.28;;;1.20;;
73940;SDS011;62294;48.554;10.202;2024-03-23T12:42:47;4.03;;;1.65;;
73940;SDS011;62294;48.554;10.202;2024-03-23T12:45:13;3.30;;;1.67;;
73940;SDS011;62294;48.554;10.202;2024-03-23T12:47:39;5.45;;;1.75;;
73940;SDS011;62294;48.554;10.202;2024-03-23T12:50:04;3.28;;;1.55;;
73940;SDS011;62294;48.554;10.202;2024-03-23T12:52:31;5.00;;;1.65;;
73940;SDS011;62294;48.554;10.202;2024-03-23T12:55:00;4.65;;;1.70;;
73940;SDS011;62294;48.554;10.202;2024-03-23T12:57:26;3.05;;;1.45;;
73940;SDS011;62294;48.554;10.202;2024-03-23T12:59:52;3.78;;;1.58;;
73940;SDS011;62294;48.554;10.202;2024-03-23T13:02:19;4.60;;;1.30;;
73940;SDS011;62294;48.554;10.202;2024-03-23T13:04:51;3.58;;;1.40;;
73940;SDS011;62294;48.554;10.202;2024-03-23T13:07:20;3.35;;;1.30;;
73940;SDS011;62294;48.554;10.202;2024-03-23T13:09:49;2.13;;;0.82;;
73940;SDS011;62294;48.554;10.202;2024-03-23T13:12:16;3.30;;;1.38;;
73940;SDS011;62294;48.554;10.202;2024-03-23T13:14:42;1.95;;;1.00;;
73940;SDS011;62294;48.554;10.202;2024-03-23T13:17:07;5.15;;;1.40;;
73940;SDS011;62294;48.554;10.202;2024-03-23T13:19:34;1.15;;;0.80;;
73940;SDS011;62294;48.554;10.202;2024-03-23T13:22:00;1.48;;;1.10;;
73940;SDS011;62294;48.554;10.202;2024-03-23T13:24:26;2.88;;;1.50;;
73940;SDS011;62294;48.554;10.202;2024-03-23T13:26:53;8.25;;;1.60;;
73940;SDS011;62294;48.554;10.202;2024-03-23T13:29:20;6.50;;;1.63;;
73940;SDS011;62294;48.554;10.202;2024-03-23T13:31:46;1.40;;;1.08;;
73940;SDS011;62294;48.554;10.202;2024-03-23T13:34:12;4.43;;;1.38;;
73940;SDS011;62294;48.554;10.202;2024-03-23T13:36:41;4.60;;;1.73;;
73940;SDS011;62294;48.554;10.202;2024-03-23T13:39:07;3.85;;;1.60;;
73940;SDS011;62294;48.554;10.202;2024-03-23T13:41:39;13.07;;;2.15;;
73940;SDS011;62294;48.554;10.202;2024-03-23T13:44:06;3.83;;;1.58;;
73940;SDS011;62294;48.554;10.202;2024-03-23T13:46:32;7.25;;;2.05;;
73940;SDS011;62294;48.554;10.202;2024-03-23T13:48:58;3.83;;;1.60;;
73940;SDS011;62294;48.554;10.202;2024-03-23T13:51:25;2.65;;;1.38;;
73940;SDS011;62294;48.554;10.202;2024-03-23T13:53:55;2.47;;;1.25;;
73940;SDS011;62294;48.554;10.202;2024-03-23T13:56:25;2.33;;;1.13;;
73940;SDS011;62294;48.554;10.202;2024-03-23T13:58:50;2.30;;;1.23;;
73940;SDS011;62294;48.554;10.202;2024-03-23T14:01:16;9.45;;;2.00;;
73940;SDS011;62294;48.554;10.202;2024-03-23T14:03:42;2.30;;;1.42;;
73940;SDS011;62294;48.554;10.202;2024-03-23T14:06:08;3.10;;;1.13;;
73940;SDS011;62294;48.554;10.202;2024-03-23T14:08:35;4.53;;;1.63;;
73940;SDS011;62294;48.554;10.202;2024-03-23T14:11:07;3.75;;;1.42;;
73940;SDS011;62294;48.554;10.202;2024-03-23T14:13:34;8.50;;;2.20;;
73940;SDS011;62294;48.554;10.202;2024-03-23T14:16:00;3.63;;;1.80;;
73940;SDS011;62294;48.554;10.202;2024-03-23T14:18:27;7.05;;;2.78;;
73940;SDS011;62294;48.554;10.202;2024-03-23T14:20:56;3.85;;;1.30;;
73940;SDS011;62294;48.554;10.202;2024-03-23T14:23:25;4.10;;;1.70;;
73940;SDS011;62294;48.554;10.202;2024-03-23T14:25:52;6.93;;;1.70;;
73940;SDS011;62294;48.554;10.202;2024-03-23T14:28:19;4.15;;;1.45;;
73940;SDS011;62294;48.554;10.202;2024-03-23T14:30:44;3.50;;;1.65;;
73940;SDS011;62294;48.554;10.202;2024-03-23T14:33:10;2.97;;;2.10;;
73940;SDS011;62294;48.554;10.202;2024-03-23T14:35:36;5.95;;;1.92;;
73940;SDS011;62294;48.554;10.202;2024-03-23T14:38:02;0.80;;;0.80;;
73940;SDS011;62294;48.554;10.202;2024-03-23T14:40:28;1.20;;;1.00;;
73940;SDS011;62294;48.554;10.202;2024-03-23T14:42:54;3.30;;;1.23;;
73940;SDS011;62294;48.554;10.202;2024-03-23T14:45:21;2.60;;;1.10;;
73940;SDS011;62294;48.554;10.202;2024-03-23T14:47:47;2.83;;;1.08;;
73940;SDS011;62294;48.554;10.202;2024-03-23T14:50:13;0.60;;;0.60;;
73940;SDS011;62294;48.554;10.202;2024-03-23T14:52:44;3.88;;;1.33;;
73940;SDS011;62294;48.554;10.202;2024-03-23T14:55:13;1.80;;;0.98;;
73940;SDS011;62294;48.554;10.202;2024-03-23T14:57:39;2.05;;;1.00;;
73940;SDS011;62294;48.554;10.202;2024-03-23T15:00:08;2.17;;;0.85;;
73940;SDS011;62294;48.554;10.202;2024-03-23T15:02:36;1.67;;;0.88;;
73940;SDS011;62294;48.554;10.202;2024-03-23T15:05:02;2.28;;;1.20;;
73940;SDS011;62294;48.554;10.202;2024-03-23T15:07:30;1.63;;;1.10;;
73940;SDS011;62294;48.554;10.202;2024-03-23T15:09:56;4.65;;;0.93;;
73940;SDS011;62294;48.554;10.202;2024-03-23T15:12:22;2.55;;;1.10;;
73940;SDS011;62294;48.554;10.202;2024-03-23T15:14:48;3.40;;;0.93;;
73940;SDS011;62294;48.554;10.202;2024-03-23T15:17:13;3.78;;;1.40;;
73940;SDS011;62294;48.554;10.202;2024-03-23T15:19:39;3.15;;;0.90;;
73940;SDS011;62294;48.554;10.202;2024-03-23T15:22:06;3.55;;;1.23;;
73940;SDS011;62294;48.554;10.202;2024-03-23T15:24:32;2.35;;;0.90;;
73940;SDS011;62294;48.554;10.202;2024-03-23T15:27:00;2.50;;;0.90;;
73940;SDS011;62294;48.554;10.202;2024-03-23T15:29:26;1.33;;;0.90;;
73940;SDS011;62294;48.554;10.202;2024-03-23T15:31:52;0.85;;;0.70;;
73940;SDS011;62294;48.554;10.202;2024-03-23T15:34:18;0.60;;;0.60;;
73940;SDS011;62294;48.554;10.202;2024-03-23T15:36:47;2.88;;;1.08;;
73940;SDS011;62294;48.554;10.202;2024-03-23T15:39:16;0.70;;;0.70;;
73940;SDS011;62294;48.554;10.202;2024-03-23T15:41:45;3.70;;;1.38;;